Time;durP1;ratioP1;P1;durP2;ratioP2;P2;SDS_P1;SDS_P2;PMS_P1;PMS_P2;Temp;Humidity;BMP_temperature;BMP_pressure;BME280_temperature;BME280_humidity;BME280_pressure;Samples;Min_cycle;Max_cycle;Signal;HPM_P1;HPM_P2
2022/10/29 00:01:12;;;;;;;;;;;19.10;73.10;;;;;;5097381;28;19969;-83
2022/10/29 00:03:38;;;;;;;;;;;19.10;73.00;;;;;;5103622;28;19919;-81
2022/10/29 00:06:04;;;;;;;;;;;19.10;73.00;;;;;;5098967;28;19912;-85
2022/10/29 00:08:31;;;;;;;;;;;19.10;73.00;;;;;;5105247;28;20002;-83
2022/10/29 00:11:07;;;;;;;;;;;19.00;73.00;;;;;;5107369;28;19942;-81
2022/10/29 00:13:33;;;;;;;;;;;19.00;73.00;;;;;;5093495;28;19920;-82
2022/10/29 00:15:59;;;;;;;;;;;19.00;73.00;;;;;;5094555;28;19912;-82
2022/10/29 00:18:24;;;;;;;;;;;19.00;73.10;;;;;;5107213;28;20361;-82
2022/10/29 00:20:58;;;;;;;;;;;19.00;73.00;;;;;;5089325;28;19917;-82
2022/10/29 00:23:24;;;;;;;;;;;19.00;73.10;;;;;;5110172;27;19912;-83
2022/10/29 00:25:54;;;;;;;;;;;18.90;73.00;;;;;;5094058;28;19927;-82
2022/10/29 00:28:19;;;;;;;;;;;18.90;73.10;;;;;;5093814;28;20272;-83
2022/10/29 00:30:45;;;;;;;;;;;18.90;73.00;;;;;;5094986;28;20364;-83
2022/10/29 00:33:11;;;;;;;;;;;18.90;73.00;;;;;;5080347;28;19924;-82
2022/10/29 00:35:37;;;;;;;;;;;18.90;73.10;;;;;;5094938;28;19927;-83
2022/10/29 00:38:03;;;;;;;;;;;18.80;73.00;;;;;;5086892;28;19924;-83
2022/10/29 00:40:28;;;;;;;;;;;18.80;73.00;;;;;;5106155;28;19916;-82
2022/10/29 00:43:10;;;;;;;;;;;18.80;73.00;;;;;;5075527;28;19924;-84
2022/10/29 00:45:38;;;;;;;;;;;18.80;73.10;;;;;;5070829;28;19912;-83
2022/10/29 00:48:03;;;;;;;;;;;18.80;73.10;;;;;;5092823;28;19916;-82
2022/10/29 00:50:29;;;;;;;;;;;18.80;73.10;;;;;;5093778;28;20408;-85
2022/10/29 00:52:55;;;;;;;;;;;18.70;73.00;;;;;;5070882;28;19924;-82
2022/10/29 00:55:21;;;;;;;;;;;18.70;73.10;;;;;;5108038;28;19923;-83
2022/10/29 00:57:49;;;;;;;;;;;18.70;73.10;;;;;;5082448;28;19920;-82
2022/10/29 01:00:15;;;;;;;;;;;18.70;73.10;;;;;;5090472;28;19912;-82
2022/10/29 01:02:42;;;;;;;;;;;18.70;73.10;;;;;;5088141;28;19934;-82
2022/10/29 01:05:08;;;;;;;;;;;18.60;73.10;;;;;;5089269;28;19919;-82
2022/10/29 01:07:37;;;;;;;;;;;18.60;73.10;;;;;;5083953;28;19916;-82
2022/10/29 01:10:03;;;;;;;;;;;18.60;73.10;;;;;;5080156;28;20554;-81
2022/10/29 01:12:28;;;;;;;;;;;18.60;73.10;;;;;;5082629;28;19934;-82
2022/10/29 01:15:00;;;;;;;;;;;18.50;73.10;;;;;;5109061;28;19924;-83
2022/10/29 01:17:35;;;;;;;;;;;18.50;73.10;;;;;;5085746;28;19919;-84
2022/10/29 01:20:00;;;;;;;;;;;18.50;73.10;;;;;;5078565;28;20383;-82
2022/10/29 01:22:26;;;;;;;;;;;18.50;73.10;;;;;;5093156;28;19921;-84
2022/10/29 01:25:11;;;;;;;;;;;18.50;73.10;;;;;;5082392;28;19945;-82
2022/10/29 01:27:48;;;;;;;;;;;18.40;73.10;;;;;;5084868;28;19951;-84
2022/10/29 01:30:36;;;;;;;;;;;18.40;73.10;;;;;;5106493;27;19924;-83
2022/10/29 01:33:25;;;;;;;;;;;18.40;73.10;;;;;;5105079;27;19920;-81
2022/10/29 01:36:04;;;;;;;;;;;18.40;73.20;;;;;;5061580;28;19912;-82
2022/10/29 01:38:45;;;;;;;;;;;18.30;73.10;;;;;;5096641;28;20356;-83
2022/10/29 01:41:13;;;;;;;;;;;18.30;73.10;;;;;;5111941;27;19960;-81
2022/10/29 01:43:42;;;;;;;;;;;18.30;73.10;;;;;;5071828;28;20096;-82
2022/10/29 01:46:37;;;;;;;;;;;18.30;73.20;;;;;;5092116;28;19920;-81
2022/10/29 01:49:06;;;;;;;;;;;18.30;73.20;;;;;;5068986;28;19916;-84
2022/10/29 01:51:34;;;;;;;;;;;18.20;73.10;;;;;;5081201;28;20463;-82
2022/10/29 01:54:01;;;;;;;;;;;18.20;73.20;;;;;;5089725;28;20316;-83
2022/10/29 01:56:26;;;;;;;;;;;18.20;73.20;;;;;;5110524;27;19920;-81
2022/10/29 01:58:55;;;;;;;;;;;18.20;73.10;;;;;;5079775;28;19920;-83
2022/10/29 02:01:39;;;;;;;;;;;18.20;73.20;;;;;;5102130;27;20004;-82
2022/10/29 02:04:27;;;;;;;;;;;18.10;73.20;;;;;;5089950;28;19912;-83
2022/10/29 02:06:58;;;;;;;;;;;18.10;73.20;;;;;;5091266;28;19912;-82
2022/10/29 02:09:24;;;;;;;;;;;18.10;73.20;;;;;;5076190;28;19923;-82
2022/10/29 02:11:49;;;;;;;;;;;18.10;73.20;;;;;;5075419;28;19916;-82
2022/10/29 02:14:28;;;;;;;;;;;18.10;73.20;;;;;;5092998;28;20007;-82
2022/10/29 02:16:54;;;;;;;;;;;18.00;73.20;;;;;;5109472;27;19919;-82
2022/10/29 02:19:20;;;;;;;;;;;18.00;73.20;;;;;;5091869;28;19920;-81
2022/10/29 02:21:46;;;;;;;;;;;18.00;73.20;;;;;;5072300;28;19912;-81
2022/10/29 02:24:11;;;;;;;;;;;18.00;73.20;;;;;;5105643;27;19920;-82
2022/10/29 02:26:37;;;;;;;;;;;18.00;73.20;;;;;;5084936;28;19939;-82
2022/10/29 02:29:02;;;;;;;;;;;18.00;73.20;;;;;;5078545;28;19916;-81
2022/10/29 02:31:28;;;;;;;;;;;17.90;73.20;;;;;;5088641;28;19924;-82
2022/10/29 02:33:54;;;;;;;;;;;17.90;73.20;;;;;;5099772;28;19927;-81
2022/10/29 02:36:19;;;;;;;;;;;17.90;73.20;;;;;;5094957;28;19924;-81
2022/10/29 02:38:45;;;;;;;;;;;17.90;73.20;;;;;;5094891;28;19993;-81
2022/10/29 02:41:11;;;;;;;;;;;17.90;73.20;;;;;;5089560;28;19923;-81
2022/10/29 02:43:36;;;;;;;;;;;17.90;73.20;;;;;;5098781;28;19919;-83
2022/10/29 02:46:09;;;;;;;;;;;17.90;73.20;;;;;;5073711;28;19920;-82
2022/10/29 02:48:34;;;;;;;;;;;17.80;73.20;;;;;;5068688;28;19920;-82
2022/10/29 02:51:00;;;;;;;;;;;17.80;73.20;;;;;;5093903;28;19923;-81
2022/10/29 02:53:26;;;;;;;;;;;17.80;73.20;;;;;;5088810;28;20012;-81
2022/10/29 02:55:51;;;;;;;;;;;17.80;73.20;;;;;;5089413;28;19916;-82
2022/10/29 02:58:17;;;;;;;;;;;17.70;73.20;;;;;;5101335;27;19912;-82
2022/10/29 03:00:43;;;;;;;;;;;17.70;73.20;;;;;;5098465;28;20014;-82
2022/10/29 03:03:08;;;;;;;;;;;17.70;73.20;;;;;;5086501;28;19912;-82
2022/10/29 03:05:36;;;;;;;;;;;17.70;73.30;;;;;;5093657;28;19912;-81
2022/10/29 03:08:01;;;;;;;;;;;17.70;73.30;;;;;;5096272;28;20007;-82
2022/10/29 03:10:27;;;;;;;;;;;17.60;73.20;;;;;;5098215;28;20007;-83
2022/10/29 03:12:53;;;;;;;;;;;17.60;73.20;;;;;;5058009;28;20041;-84
2022/10/29 03:15:18;;;;;;;;;;;17.60;73.30;;;;;;5092780;28;19911;-81
2022/10/29 03:17:44;;;;;;;;;;;17.60;73.30;;;;;;5097751;28;19995;-83
2022/10/29 03:20:10;;;;;;;;;;;17.50;73.20;;;;;;5081374;28;19916;-81
2022/10/29 03:22:36;;;;;;;;;;;17.60;73.30;;;;;;5078872;28;20006;-83
2022/10/29 03:25:01;;;;;;;;;;;17.50;73.30;;;;;;5095739;28;19912;-81
2022/10/29 03:27:27;;;;;;;;;;;17.40;73.20;;;;;;5099814;28;19923;-81
2022/10/29 03:29:52;;;;;;;;;;;17.50;73.30;;;;;;5084131;28;19919;-81
2022/10/29 03:32:18;;;;;;;;;;;17.40;73.30;;;;;;5106716;28;19965;-82
2022/10/29 03:34:44;;;;;;;;;;;17.40;73.30;;;;;;5082224;28;20008;-81
2022/10/29 03:37:09;;;;;;;;;;;17.40;73.30;;;;;;5110702;28;19987;-81
2022/10/29 03:39:35;;;;;;;;;;;17.40;73.40;;;;;;5097438;28;19911;-82
2022/10/29 03:42:02;;;;;;;;;;;17.40;73.40;;;;;;5084046;28;19912;-81
2022/10/29 03:44:28;;;;;;;;;;;17.30;73.30;;;;;;5084968;28;20623;-81
2022/10/29 03:46:54;;;;;;;;;;;17.30;73.40;;;;;;5057221;28;19928;-81
2022/10/29 03:49:19;;;;;;;;;;;17.30;73.40;;;;;;5089759;28;19920;-82
2022/10/29 03:51:45;;;;;;;;;;;17.30;73.40;;;;;;5108573;28;19916;-81
2022/10/29 03:54:11;;;;;;;;;;;17.30;73.40;;;;;;5074106;28;19952;-82
2022/10/29 03:56:37;;;;;;;;;;;17.30;73.40;;;;;;5100786;28;20751;-82
2022/10/29 03:59:02;;;;;;;;;;;17.30;73.40;;;;;;5100118;28;19919;-82
2022/10/29 04:01:28;;;;;;;;;;;17.20;73.40;;;;;;5060957;28;19916;-81
2022/10/29 04:03:54;;;;;;;;;;;17.20;73.40;;;;;;5082125;28;19912;-81
2022/10/29 04:06:19;;;;;;;;;;;17.20;73.40;;;;;;5066241;28;19923;-81
2022/10/29 04:08:45;;;;;;;;;;;17.20;73.50;;;;;;5072259;28;19966;-82
2022/10/29 04:11:11;;;;;;;;;;;17.20;73.50;;;;;;5102781;28;19912;-81
2022/10/29 04:13:37;;;;;;;;;;;17.20;73.50;;;;;;5106413;28;19920;-81
2022/10/29 04:16:03;;;;;;;;;;;17.10;73.40;;;;;;5107812;28;19919;-81
2022/10/29 04:18:28;;;;;;;;;;;17.10;73.50;;;;;;5093285;28;19916;-82
2022/10/29 04:20:57;;;;;;;;;;;17.10;73.50;;;;;;5092688;28;19916;-82
2022/10/29 04:23:23;;;;;;;;;;;17.10;73.50;;;;;;5108306;27;19930;-82
2022/10/29 04:25:58;;;;;;;;;;;17.10;73.50;;;;;;5091779;28;19912;-81
2022/10/29 04:28:24;;;;;;;;;;;17.10;73.60;;;;;;5084053;28;19963;-81
2022/10/29 04:30:50;;;;;;;;;;;17.00;73.50;;;;;;5091443;28;20334;-85
2022/10/29 04:33:16;;;;;;;;;;;17.00;73.50;;;;;;5077163;28;19970;-81
2022/10/29 04:35:41;;;;;;;;;;;17.00;73.50;;;;;;5109325;27;19920;-82
2022/10/29 04:38:07;;;;;;;;;;;17.00;73.60;;;;;;5097480;28;20308;-81
2022/10/29 04:40:33;;;;;;;;;;;17.00;73.60;;;;;;5097390;28;19912;-83
2022/10/29 04:42:59;;;;;;;;;;;17.00;73.60;;;;;;5074097;28;20015;-82
2022/10/29 04:45:25;;;;;;;;;;;16.90;73.60;;;;;;5094889;28;20398;-81
2022/10/29 04:47:58;;;;;;;;;;;16.90;73.60;;;;;;5102958;28;19917;-82
2022/10/29 04:50:24;;;;;;;;;;;16.90;73.60;;;;;;5089535;28;20505;-82
2022/10/29 04:52:49;;;;;;;;;;;16.90;73.60;;;;;;5105110;27;19913;-83
2022/10/29 04:55:15;;;;;;;;;;;16.90;73.60;;;;;;5063180;28;19924;-81
2022/10/29 04:57:41;;;;;;;;;;;16.90;73.70;;;;;;5071266;28;20416;-80
2022/10/29 05:00:07;;;;;;;;;;;16.90;73.70;;;;;;5098864;28;19916;-81
2022/10/29 05:02:34;;;;;;;;;;;16.90;73.70;;;;;;5097279;28;20307;-82
2022/10/29 05:04:59;;;;;;;;;;;16.90;73.70;;;;;;5083371;28;19991;-82
2022/10/29 05:07:25;;;;;;;;;;;16.90;73.70;;;;;;5082093;28;19998;-83
2022/10/29 05:09:51;;;;;;;;;;;16.80;73.70;;;;;;5078381;28;19932;-81
2022/10/29 05:12:16;;;;;;;;;;;16.80;73.70;;;;;;5096515;28;19927;-82
2022/10/29 05:14:42;;;;;;;;;;;16.80;73.70;;;;;;5105026;27;19916;-81
2022/10/29 05:17:07;;;;;;;;;;;16.80;73.70;;;;;;5106505;28;19949;-83
2022/10/29 05:19:33;;;;;;;;;;;16.80;73.70;;;;;;5075697;28;19912;-81
2022/10/29 05:21:59;;;;;;;;;;;16.90;73.80;;;;;;5080760;28;19916;-81
2022/10/29 05:24:24;;;;;;;;;;;16.80;73.80;;;;;;5075245;28;20594;-81
2022/10/29 05:26:50;;;;;;;;;;;16.80;73.80;;;;;;5103283;28;19957;-81
2022/10/29 05:29:16;;;;;;;;;;;16.80;73.80;;;;;;5099598;28;20284;-81
2022/10/29 05:31:41;;;;;;;;;;;16.80;73.80;;;;;;5092436;28;20464;-82
2022/10/29 05:34:07;;;;;;;;;;;16.80;73.80;;;;;;5103781;28;19942;-82
2022/10/29 05:36:32;;;;;;;;;;;16.80;73.80;;;;;;5109533;27;19923;-80
2022/10/29 05:38:58;;;;;;;;;;;16.70;73.80;;;;;;5093969;28;20057;-82
2022/10/29 05:41:24;;;;;;;;;;;16.70;73.80;;;;;;5093124;28;20037;-79
2022/10/29 05:43:49;;;;;;;;;;;16.70;73.80;;;;;;5091731;28;20000;-81
2022/10/29 05:46:15;;;;;;;;;;;16.70;73.80;;;;;;5071969;28;20265;-80
2022/10/29 05:48:41;;;;;;;;;;;16.70;73.80;;;;;;5091598;28;20014;-81
2022/10/29 05:51:07;;;;;;;;;;;16.70;73.90;;;;;;5093516;28;20379;-81
2022/10/29 05:53:33;;;;;;;;;;;16.70;73.90;;;;;;5091931;28;20003;-82
2022/10/29 05:55:58;;;;;;;;;;;16.70;73.90;;;;;;5097733;28;20011;-81
2022/10/29 05:58:24;;;;;;;;;;;16.70;73.90;;;;;;5087653;28;19958;-82
2022/10/29 06:00:50;;;;;;;;;;;16.70;73.90;;;;;;5094302;28;19920;-80
2022/10/29 06:03:16;;;;;;;;;;;16.70;73.90;;;;;;5079860;28;20662;-83
2022/10/29 06:05:42;;;;;;;;;;;16.70;73.90;;;;;;5097714;28;19914;-81
2022/10/29 06:08:08;;;;;;;;;;;16.70;73.90;;;;;;5094287;28;19912;-83
2022/10/29 06:10:33;;;;;;;;;;;16.70;74.00;;;;;;5075400;28;19948;-82
2022/10/29 06:12:59;;;;;;;;;;;16.60;73.90;;;;;;5071544;28;20448;-81
2022/10/29 06:15:25;;;;;;;;;;;16.70;74.00;;;;;;5081902;28;19916;-83
2022/10/29 06:17:50;;;;;;;;;;;16.70;74.00;;;;;;5089567;28;20328;-84
2022/10/29 06:20:17;;;;;;;;;;;16.60;74.00;;;;;;5078018;28;20615;-82
2022/10/29 06:22:43;;;;;;;;;;;16.70;74.00;;;;;;5097551;28;19911;-81
2022/10/29 06:25:08;;;;;;;;;;;16.70;74.00;;;;;;5094293;28;20447;-81
2022/10/29 06:27:34;;;;;;;;;;;16.60;74.00;;;;;;5092874;28;20586;-81
2022/10/29 06:30:00;;;;;;;;;;;16.60;74.00;;;;;;5098796;28;19926;-81
2022/10/29 06:32:26;;;;;;;;;;;16.60;74.00;;;;;;5078285;28;20443;-81
2022/10/29 06:34:51;;;;;;;;;;;16.60;74.00;;;;;;5072119;28;19917;-83
2022/10/29 06:37:17;;;;;;;;;;;16.60;74.00;;;;;;5083213;28;19943;-80
2022/10/29 06:39:43;;;;;;;;;;;16.60;74.00;;;;;;5085907;28;19962;-81
2022/10/29 06:42:08;;;;;;;;;;;16.60;74.00;;;;;;5108542;27;19958;-81
2022/10/29 06:44:34;;;;;;;;;;;16.60;74.00;;;;;;5078622;28;19923;-79
2022/10/29 06:47:00;;;;;;;;;;;16.60;74.70;;;;;;5104700;28;19912;-81
2022/10/29 06:49:25;;;;;;;;;;;16.60;74.10;;;;;;5095023;28;19972;-81
2022/10/29 06:51:51;;;;;;;;;;;16.60;74.10;;;;;;5093872;28;20377;-81
2022/10/29 06:54:16;;;;;;;;;;;16.60;74.10;;;;;;5088237;28;19970;-81
2022/10/29 06:56:42;;;;;;;;;;;16.60;74.10;;;;;;5088777;28;20061;-81
2022/10/29 06:59:08;;;;;;;;;;;16.60;74.10;;;;;;5093021;28;19915;-82
2022/10/29 07:01:33;;;;;;;;;;;16.60;74.10;;;;;;5110034;27;20346;-81
2022/10/29 07:03:59;;;;;;;;;;;16.60;74.20;;;;;;5084652;28;20347;-81
2022/10/29 07:06:25;;;;;;;;;;;16.60;74.10;;;;;;5081020;28;19920;-80
2022/10/29 07:08:50;;;;;;;;;;;16.60;74.80;;;;;;5082782;28;19921;-81
2022/10/29 07:11:16;;;;;;;;;;;16.60;74.20;;;;;;5110896;27;19923;-80
2022/10/29 07:13:42;;;;;;;;;;;16.60;74.20;;;;;;5092352;28;19997;-81
2022/10/29 07:16:07;;;;;;;;;;;16.50;74.10;;;;;;5099026;28;19920;-81
2022/10/29 07:18:33;;;;;;;;;;;16.60;74.20;;;;;;5083173;28;20402;-81
2022/10/29 07:21:00;;;;;;;;;;;16.60;74.20;;;;;;5098881;28;20362;-80
2022/10/29 07:23:26;;;;;;;;;;;16.60;74.20;;;;;;5093034;28;19909;-81
2022/10/29 07:25:52;;;;;;;;;;;16.60;74.20;;;;;;5089179;28;20314;-81
2022/10/29 07:28:21;;;;;;;;;;;16.60;74.20;;;;;;5094828;28;20380;-81
2022/10/29 07:30:48;;;;;;;;;;;16.60;74.20;;;;;;5094997;28;20001;-81
2022/10/29 07:33:14;;;;;;;;;;;16.60;74.20;;;;;;5086766;28;19928;-81
2022/10/29 07:35:40;;;;;;;;;;;16.60;74.20;;;;;;5088377;28;19918;-81
2022/10/29 07:38:06;;;;;;;;;;;16.60;74.30;;;;;;5092598;28;19922;-81
2022/10/29 07:40:32;;;;;;;;;;;16.60;74.30;;;;;;5101289;28;19916;-81
2022/10/29 07:42:58;;;;;;;;;;;16.60;74.30;;;;;;5105617;28;20445;-81
2022/10/29 07:45:24;;;;;;;;;;;16.60;74.30;;;;;;5099290;28;19967;-81
2022/10/29 07:47:57;;;;;;;;;;;16.60;74.30;;;;;;5093277;28;20280;-81
2022/10/29 07:50:22;;;;;;;;;;;16.60;74.20;;;;;;5089536;28;19928;-81
2022/10/29 07:52:48;;;;;;;;;;;16.60;74.20;;;;;;5082903;28;19913;-81
2022/10/29 07:55:14;;;;;;;;;;;16.70;74.30;;;;;;5094719;28;19923;-81
2022/10/29 07:57:39;;;;;;;;;;;16.60;74.30;;;;;;5061307;28;19919;-81
2022/10/29 08:00:05;;;;;;;;;;;16.70;74.30;;;;;;5101850;28;20002;-81
2022/10/29 08:02:38;;;;;;;;;;;16.70;74.30;;;;;;5107470;28;19912;-81
2022/10/29 08:05:04;;;;;;;;;;;16.70;74.30;;;;;;5097474;27;20010;-81
2022/10/29 08:07:29;;;;;;;;;;;16.70;74.40;;;;;;5086084;28;19999;-81
2022/10/29 08:09:55;;;;;;;;;;;16.70;74.30;;;;;;5096573;28;20019;-81
2022/10/29 08:12:21;;;;;;;;;;;16.70;74.30;;;;;;5099232;28;19908;-81
2022/10/29 08:14:46;;;;;;;;;;;16.70;74.30;;;;;;5090916;28;19912;-80
2022/10/29 08:17:12;;;;;;;;;;;16.70;74.30;;;;;;5096956;28;19991;-80
2022/10/29 08:19:38;;;;;;;;;;;16.80;74.40;;;;;;5085584;28;19966;-82
2022/10/29 08:22:03;;;;;;;;;;;16.80;74.40;;;;;;5105123;28;20363;-79
2022/10/29 08:24:29;;;;;;;;;;;16.80;74.40;;;;;;5092989;28;20408;-81
2022/10/29 08:26:54;;;;;;;;;;;16.80;74.30;;;;;;5096040;28;19924;-80
2022/10/29 08:29:20;;;;;;;;;;;16.80;74.30;;;;;;5075367;28;19935;-81
2022/10/29 08:31:46;;;;;;;;;;;16.80;74.30;;;;;;5075328;28;19958;-81
2022/10/29 08:34:11;;;;;;;;;;;16.80;74.30;;;;;;5091272;28;20373;-81
2022/10/29 08:36:37;;;;;;;;;;;16.90;74.40;;;;;;5091091;28;20006;-80
2022/10/29 08:39:03;;;;;;;;;;;16.90;74.40;;;;;;5078342;28;20011;-81
2022/10/29 08:42:01;;;;;;;;;;;16.90;74.40;;;;;;5090916;28;19920;-80
2022/10/29 08:44:32;;;;;;;;;;;16.90;74.40;;;;;;5058459;28;19912;-81
2022/10/29 08:47:10;;;;;;;;;;;16.90;74.40;;;;;;5092880;28;19912;-80
2022/10/29 08:49:42;;;;;;;;;;;16.90;74.40;;;;;;5088252;28;19928;-81
2022/10/29 08:52:10;;;;;;;;;;;17.00;74.50;;;;;;5092671;28;19962;-79
2022/10/29 08:54:38;;;;;;;;;;;17.00;74.50;;;;;;5097900;28;19918;-81
2022/10/29 08:57:07;;;;;;;;;;;17.00;74.50;;;;;;5107367;28;19912;-79
2022/10/29 08:59:36;;;;;;;;;;;17.00;74.50;;;;;;5076665;28;19972;-82
2022/10/29 09:02:02;;;;;;;;;;;17.10;74.50;;;;;;5081014;28;19912;-81
2022/10/29 09:04:35;;;;;;;;;;;17.00;74.40;;;;;;5104662;28;19920;-80
2022/10/29 09:07:06;;;;;;;;;;;17.10;74.50;;;;;;5068641;28;19912;-81
2022/10/29 09:09:32;;;;;;;;;;;17.10;74.50;;;;;;5093313;28;20069;-81
2022/10/29 09:12:16;;;;;;;;;;;17.20;74.50;;;;;;5071316;28;20003;-81
2022/10/29 09:15:01;;;;;;;;;;;17.10;74.50;;;;;;5088952;28;20361;-81
2022/10/29 09:17:42;;;;;;;;;;;17.10;74.40;;;;;;5088418;28;20130;-82
2022/10/29 09:20:11;;;;;;;;;;;17.20;74.50;;;;;;5086746;28;19995;-81
2022/10/29 09:22:44;;;;;;;;;;;17.20;74.50;;;;;;5101477;28;19912;-82
2022/10/29 09:25:20;;;;;;;;;;;17.30;74.60;;;;;;5101915;28;19912;-81
2022/10/29 09:27:58;;;;;;;;;;;17.30;74.50;;;;;;5103589;28;19913;-82
2022/10/29 09:30:28;;;;;;;;;;;17.30;74.50;;;;;;5091230;28;19950;-81
2022/10/29 09:33:03;;;;;;;;;;;17.30;74.50;;;;;;5086642;28;19920;-81
2022/10/29 09:35:40;;;;;;;;;;;17.40;74.60;;;;;;5073178;28;19918;-81
2022/10/29 09:38:11;;;;;;;;;;;17.40;75.20;;;;;;5099588;28;20304;-81
2022/10/29 09:40:39;;;;;;;;;;;17.40;74.60;;;;;;5088520;28;19924;-81
2022/10/29 09:43:24;;;;;;;;;;;17.50;74.60;;;;;;5098304;28;19991;-81
2022/10/29 09:45:56;;;;;;;;;;;17.50;74.60;;;;;;5083101;28;19912;-82
2022/10/29 09:48:25;;;;;;;;;;;17.60;74.60;;;;;;5091392;28;19920;-81
2022/10/29 09:51:04;;;;;;;;;;;17.60;74.60;;;;;;5082810;28;19915;-81
2022/10/29 09:53:29;;;;;;;;;;;17.60;75.20;;;;;;5100191;28;19975;-80
2022/10/29 09:55:55;;;;;;;;;;;17.60;74.60;;;;;;5083360;28;19943;-81
2022/10/29 09:58:26;;;;;;;;;;;17.70;74.60;;;;;;5093268;28;19917;-81
2022/10/29 10:00:52;;;;;;;;;;;17.70;74.60;;;;;;5080434;28;20373;-81
2022/10/29 10:03:20;;;;;;;;;;;17.70;74.60;;;;;;5099027;28;19915;-80
2022/10/29 10:06:00;;;;;;;;;;;17.80;74.60;;;;;;5087179;28;19912;-82
2022/10/29 10:08:26;;;;;;;;;;;17.80;74.60;;;;;;5087035;28;19920;-81
2022/10/29 10:10:56;;;;;;;;;;;17.80;74.60;;;;;;5095919;28;19962;-81
2022/10/29 10:13:22;;;;;;;;;;;17.80;74.60;;;;;;5115047;27;20348;-80
2022/10/29 10:15:58;;;;;;;;;;;17.90;74.60;;;;;;5088075;28;19919;-82
2022/10/29 10:18:30;;;;;;;;;;;17.90;74.60;;;;;;5092798;28;19916;-81
2022/10/29 10:21:12;;;;;;;;;;;17.90;74.60;;;;;;5096336;28;20003;-82
2022/10/29 10:23:39;;;;;;;;;;;18.00;74.60;;;;;;5096587;28;19919;-81
2022/10/29 10:26:24;;;;;;;;;;;18.00;74.60;;;;;;5105789;28;20000;-80
2022/10/29 10:29:13;;;;;;;;;;;18.00;74.70;;;;;;5095451;28;19921;-81
2022/10/29 10:31:53;;;;;;;;;;;18.10;74.70;;;;;;5087480;28;19927;-81
2022/10/29 10:34:24;;;;;;;;;;;18.10;74.70;;;;;;5110685;27;19920;-82
2022/10/29 10:36:53;;;;;;;;;;;18.10;74.70;;;;;;5087523;28;19912;-81
2022/10/29 10:39:19;;;;;;;;;;;18.20;74.70;;;;;;5090999;28;20341;-79
2022/10/29 10:41:47;;;;;;;;;;;18.20;74.70;;;;;;5101258;28;20036;-82
2022/10/29 10:44:13;;;;;;;;;;;18.20;74.70;;;;;;5103515;27;19919;-80
2022/10/29 10:46:41;;;;;;;;;;;18.20;74.60;;;;;;5079376;28;19916;-81
2022/10/29 10:49:12;;;;;;;;;;;18.30;74.70;;;;;;5106957;28;19969;-81
2022/10/29 10:51:41;;;;;;;;;;;18.30;74.60;;;;;;5104469;28;19920;-84
2022/10/29 10:54:25;;;;;;;;;;;18.30;74.60;;;;;;5097205;28;19908;-82
2022/10/29 10:57:01;;;;;;;;;;;18.40;74.70;;;;;;5089784;28;19951;-81
2022/10/29 10:59:45;;;;;;;;;;;18.40;74.60;;;;;;5097484;28;19912;-82
2022/10/29 11:02:30;;;;;;;;;;;18.50;74.60;;;;;;5090383;28;20364;-81
2022/10/29 11:04:59;;;;;;;;;;;18.50;74.60;;;;;;5088476;28;19912;-81
2022/10/29 11:07:29;;;;;;;;;;;18.50;74.60;;;;;;5084379;28;20392;-81
2022/10/29 11:09:56;;;;;;;;;;;18.60;74.60;;;;;;5104901;28;19928;-84
2022/10/29 11:12:21;;;;;;;;;;;18.60;74.60;;;;;;5094282;28;19934;-80
2022/10/29 11:14:49;;;;;;;;;;;18.60;74.60;;;;;;5093596;28;20377;-82
2022/10/29 11:17:26;;;;;;;;;;;18.70;74.60;;;;;;5079980;28;19912;-82
2022/10/29 11:19:54;;;;;;;;;;;18.70;74.70;;;;;;5108920;27;19912;-82
2022/10/29 11:22:31;;;;;;;;;;;18.70;74.60;;;;;;5100853;28;20291;-82
2022/10/29 11:25:17;;;;;;;;;;;18.80;74.60;;;;;;5102886;28;19923;-82
2022/10/29 11:27:49;;;;;;;;;;;18.80;74.60;;;;;;5064849;28;19919;-82
2022/10/29 11:30:16;;;;;;;;;;;18.90;74.60;;;;;;5116343;27;20057;-82
2022/10/29 11:32:57;;;;;;;;;;;18.90;74.60;;;;;;5096192;28;20556;-82
2022/10/29 11:35:38;;;;;;;;;;;18.90;74.60;;;;;;5095787;28;19916;-82
2022/10/29 11:38:13;;;;;;;;;;;18.90;74.60;;;;;;5090020;28;19912;-81
2022/10/29 11:40:39;;;;;;;;;;;19.00;74.70;;;;;;5071373;28;19916;-82
2022/10/29 11:43:09;;;;;;;;;;;19.10;74.70;;;;;;5105728;28;20318;-83
2022/10/29 11:45:55;;;;;;;;;;;19.10;74.70;;;;;;5095692;28;19913;-84
2022/10/29 11:48:33;;;;;;;;;;;19.20;74.70;;;;;;5087081;28;19949;-82
2022/10/29 11:51:08;;;;;;;;;;;19.20;74.70;;;;;;5093604;28;19912;-82
2022/10/29 11:53:40;;;;;;;;;;;19.20;74.70;;;;;;5091378;28;19912;-84
2022/10/29 11:56:12;;;;;;;;;;;19.30;74.70;;;;;;5102990;28;19911;-83
2022/10/29 11:58:49;;;;;;;;;;;19.30;74.70;;;;;;5102186;28;19930;-83
2022/10/29 12:01:30;;;;;;;;;;;19.40;74.80;;;;;;5076697;28;19941;-83
2022/10/29 12:04:02;;;;;;;;;;;19.40;74.70;;;;;;5095655;28;19918;-83
2022/10/29 12:06:27;;;;;;;;;;;19.40;74.70;;;;;;5102233;28;19916;-82
2022/10/29 12:09:00;;;;;;;;;;;19.40;74.70;;;;;;5093548;28;20313;-83
2022/10/29 12:11:40;;;;;;;;;;;19.50;74.70;;;;;;5102442;28;19912;-83
2022/10/29 12:14:08;;;;;;;;;;;19.60;74.80;;;;;;5099508;28;19908;-83
2022/10/29 12:16:40;;;;;;;;;;;19.60;74.80;;;;;;5096530;28;20386;-84
2022/10/29 12:19:15;;;;;;;;;;;19.60;74.80;;;;;;5088762;28;19924;-82
2022/10/29 12:21:55;;;;;;;;;;;19.60;74.80;;;;;;5081512;28;19912;-82
2022/10/29 12:24:23;;;;;;;;;;;19.70;74.80;;;;;;5102010;28;20363;-82
2022/10/29 12:27:08;;;;;;;;;;;19.70;74.90;;;;;;5088743;28;19912;-85
2022/10/29 12:29:42;;;;;;;;;;;19.80;74.90;;;;;;5096748;28;20038;-83
2022/10/29 12:32:24;;;;;;;;;;;19.80;74.90;;;;;;5093811;28;19913;-83
2022/10/29 12:35:04;;;;;;;;;;;19.80;74.90;;;;;;5086228;28;19973;-82
2022/10/29 12:37:36;;;;;;;;;;;19.90;74.90;;;;;;5109462;28;19957;-83
2022/10/29 12:40:08;;;;;;;;;;;19.90;75.00;;;;;;5082174;28;19919;-83
2022/10/29 12:42:34;;;;;;;;;;;20.00;75.00;;;;;;5083546;28;19920;-85
2022/10/29 12:45:14;;;;;;;;;;;20.00;75.00;;;;;;5108816;28;19975;-85
2022/10/29 12:48:01;;;;;;;;;;;20.00;75.00;;;;;;5096592;28;19920;-85
2022/10/29 12:50:30;;;;;;;;;;;20.10;75.00;;;;;;5099605;28;19965;-86
2022/10/29 12:53:01;;;;;;;;;;;20.10;75.00;;;;;;5104103;28;19917;-86
2022/10/29 12:55:30;;;;;;;;;;;20.20;75.10;;;;;;5087337;28;20060;-85
2022/10/29 12:57:56;;;;;;;;;;;20.20;75.10;;;;;;5079883;28;19966;-84
2022/10/29 13:00:26;;;;;;;;;;;20.20;75.00;;;;;;5107899;27;19943;-85
2022/10/29 13:02:52;;;;;;;;;;;20.30;75.10;;;;;;5087658;28;19908;-85
2022/10/29 13:05:18;;;;;;;;;;;20.30;75.10;;;;;;5073395;28;19924;-85
2022/10/29 13:07:43;;;;;;;;;;;20.30;75.10;;;;;;5113273;27;19977;-85
2022/10/29 13:10:22;;;;;;;;;;;20.30;75.10;;;;;;5088491;28;19921;-85
2022/10/29 13:12:54;;;;;;;;;;;20.40;75.10;;;;;;5089603;28;19916;-86
2022/10/29 13:15:23;;;;;;;;;;;20.40;75.10;;;;;;5102165;28;19924;-85
2022/10/29 13:17:54;;;;;;;;;;;20.40;75.10;;;;;;5108818;28;20360;-86
2022/10/29 13:20:21;;;;;;;;;;;20.50;75.10;;;;;;5092587;28;19923;-85
2022/10/29 13:22:51;;;;;;;;;;;20.50;75.10;;;;;;5093968;28;20133;-86
2022/10/29 13:25:32;;;;;;;;;;;20.60;75.10;;;;;;5092847;28;20428;-86
2022/10/29 13:28:18;;;;;;;;;;;20.60;75.10;;;;;;5102632;28;19922;-85
2022/10/29 13:30:51;;;;;;;;;;;20.60;75.10;;;;;;5108032;28;19920;-84
2022/10/29 13:33:26;;;;;;;;;;;20.60;75.10;;;;;;5092874;28;19920;-84
2022/10/29 13:35:52;;;;;;;;;;;20.70;75.10;;;;;;5102725;28;20009;-85
2022/10/29 13:38:39;;;;;;;;;;;20.70;75.10;;;;;;5104060;28;19952;-84
2022/10/29 13:41:18;;;;;;;;;;;20.70;75.10;;;;;;5087445;28;20280;-85
2022/10/29 13:44:01;;;;;;;;;;;20.80;75.10;;;;;;5091308;28;19920;-85
2022/10/29 13:46:26;;;;;;;;;;;20.80;75.00;;;;;;5088470;28;20336;-85
2022/10/29 13:48:53;;;;;;;;;;;20.80;75.00;;;;;;5107843;27;19923;-84
2022/10/29 13:51:23;;;;;;;;;;;20.90;75.00;;;;;;5105807;28;19913;-85
2022/10/29 13:53:51;;;;;;;;;;;20.90;75.00;;;;;;5102791;28;20360;-85
2022/10/29 13:56:34;;;;;;;;;;;21.00;75.00;;;;;;5073537;28;19923;-82
2022/10/29 13:59:01;;;;;;;;;;;21.00;75.00;;;;;;5100851;28;20351;-84
2022/10/29 14:01:27;;;;;;;;;;;21.00;75.00;;;;;;5083276;28;19999;-83
2022/10/29 14:03:57;;;;;;;;;;;21.00;74.90;;;;;;5105182;28;19920;-84
2022/10/29 14:06:27;;;;;;;;;;;21.10;75.00;;;;;;5097090;28;19919;-84
2022/10/29 14:08:55;;;;;;;;;;;21.10;74.90;;;;;;5109402;27;19920;-85
2022/10/29 14:11:23;;;;;;;;;;;21.10;74.90;;;;;;5087546;28;20003;-85
2022/10/29 14:13:51;;;;;;;;;;;21.20;74.90;;;;;;5107495;28;20280;-84
2022/10/29 14:16:19;;;;;;;;;;;21.20;74.90;;;;;;5077236;28;20380;-85
2022/10/29 14:18:46;;;;;;;;;;;21.30;74.80;;;;;;5112107;27;20392;-84
2022/10/29 14:21:23;;;;;;;;;;;21.30;74.80;;;;;;5072633;28;19913;-84
2022/10/29 14:24:03;;;;;;;;;;;21.30;74.80;;;;;;5081763;28;19912;-83
2022/10/29 14:26:29;;;;;;;;;;;21.30;74.80;;;;;;5086697;28;19999;-85
2022/10/29 14:28:55;;;;;;;;;;;21.30;74.70;;;;;;5087823;28;19927;-84